createdAt,value
2023-04-27T00:01:16.641Z,1020.69
2023-04-27T00:03:44.883Z,1020.75
2023-04-27T00:06:11.914Z,1020.67
2023-04-27T00:08:38.736Z,1020.72
2023-04-27T00:11:05.633Z,1020.75
2023-04-27T00:13:32.480Z,1020.72
2023-04-27T00:16:00.773Z,1020.68
2023-04-27T00:18:27.610Z,1020.66
2023-04-27T00:20:55.720Z,1020.56
2023-04-27T00:23:22.581Z,1020.64
2023-04-27T00:25:49.381Z,1020.61
2023-04-27T00:28:16.172Z,1020.54
2023-04-27T00:30:43.011Z,1020.61
2023-04-27T00:33:09.718Z,1020.52
2023-04-27T00:35:36.531Z,1020.55
2023-04-27T00:38:04.643Z,1020.64
2023-04-27T00:40:31.512Z,1020.63
2023-04-27T00:42:58.257Z,1020.54
2023-04-27T00:45:25.041Z,1020.59
2023-04-27T00:47:52.282Z,1020.64
2023-04-27T00:50:27.313Z,1020.71
2023-04-27T00:52:54.411Z,1020.58
2023-04-27T00:55:22.746Z,1020.59
2023-04-27T00:57:49.686Z,1020.50
2023-04-27T01:00:16.604Z,1020.45
2023-04-27T01:02:43.800Z,1020.57
2023-04-27T01:05:11.199Z,1020.55
2023-04-27T01:07:38.658Z,1020.55
2023-04-27T01:10:06.555Z,1020.55
2023-04-27T01:12:34.767Z,1020.61
2023-04-27T01:15:01.608Z,1020.63
2023-04-27T01:17:28.426Z,1020.62
2023-04-27T01:19:55.232Z,1020.60
2023-04-27T01:22:22.107Z,1020.72
2023-04-27T01:24:50.248Z,1020.67
2023-04-27T01:27:17.021Z,1020.77
2023-04-27T01:29:43.893Z,1020.63
2023-04-27T01:32:10.633Z,1020.57
2023-04-27T01:34:37.420Z,1020.65
2023-04-27T01:37:04.695Z,1020.70
2023-04-27T01:39:31.447Z,1020.86
2023-04-27T01:41:59.583Z,1020.91
2023-04-27T01:44:26.340Z,1020.93
2023-04-27T01:46:53.219Z,1020.98
2023-04-27T01:49:19.938Z,1020.99
2023-04-27T01:51:46.778Z,1021.03
2023-04-27T01:54:13.551Z,1021.16
2023-04-27T01:56:40.289Z,1021.22
2023-04-27T01:59:08.612Z,1021.28
2023-04-27T02:01:35.535Z,1021.27
2023-04-27T02:04:02.697Z,1021.35
2023-04-27T02:06:29.636Z,1021.55
2023-04-27T02:08:56.378Z,1021.83
2023-04-27T02:11:23.113Z,1021.81
2023-04-27T02:13:49.873Z,1021.85
2023-04-27T02:16:18.056Z,1021.84
2023-04-27T02:18:44.907Z,1021.94
2023-04-27T02:21:11.676Z,1021.90
2023-04-27T02:23:38.569Z,1021.92
2023-04-27T02:26:05.603Z,1021.91
2023-04-27T02:28:32.372Z,1022.00
2023-04-27T02:30:59.615Z,1021.93
2023-04-27T02:33:27.808Z,1021.81
2023-04-27T02:35:54.572Z,1021.89
2023-04-27T02:38:21.316Z,1021.90
2023-04-27T02:40:53.472Z,1021.85
2023-04-27T02:43:20.352Z,1021.86
2023-04-27T02:45:47.386Z,1021.77
2023-04-27T02:48:14.476Z,1021.77
2023-04-27T02:50:43.234Z,1021.72
2023-04-27T02:53:10.635Z,1021.62
2023-04-27T02:55:37.385Z,1021.58
2023-04-27T02:58:04.470Z,1021.59
2023-04-27T03:00:31.239Z,1021.60
2023-04-27T03:02:58.099Z,1021.50
2023-04-27T03:05:26.203Z,1021.57
2023-04-27T03:07:54.444Z,1021.59
2023-04-27T03:10:21.289Z,1021.46
2023-04-27T03:12:48.044Z,1021.49
2023-04-27T03:15:14.871Z,1021.40
2023-04-27T03:17:41.640Z,1021.39
2023-04-27T03:20:09.416Z,1021.33
2023-04-27T03:22:36.262Z,1021.33
2023-04-27T03:25:05.205Z,1021.35
2023-04-27T03:27:31.964Z,1021.36
2023-04-27T03:29:58.794Z,1021.48
2023-04-27T03:32:25.773Z,1021.46
2023-04-27T03:34:52.639Z,1021.46
2023-04-27T03:37:19.438Z,1021.41
2023-04-27T03:39:46.173Z,1021.42
2023-04-27T03:42:14.343Z,1021.43
2023-04-27T03:44:41.103Z,1021.37
2023-04-27T03:47:07.937Z,1021.43
2023-04-27T03:49:34.784Z,1021.54
2023-04-27T03:52:01.565Z,1021.55
2023-04-27T03:54:28.329Z,1021.57
2023-04-27T03:56:55.755Z,1021.52
2023-04-27T03:59:24.321Z,1021.61
2023-04-27T04:01:51.127Z,1021.64
2023-04-27T04:04:18.006Z,1021.58
2023-04-27T04:06:45.168Z,1021.68
2023-04-27T04:09:12.197Z,1021.75
2023-04-27T04:11:39.256Z,1021.81
2023-04-27T04:14:06.212Z,1021.88
2023-04-27T04:16:34.834Z,1021.75
2023-04-27T04:19:01.692Z,1021.85
2023-04-27T04:21:28.767Z,1021.78
2023-04-27T04:23:55.584Z,1021.77
2023-04-27T04:26:22.421Z,1021.83
2023-04-27T04:28:49.677Z,1021.88
2023-04-27T04:31:16.516Z,1021.97
2023-04-27T04:33:44.735Z,1021.98
2023-04-27T04:36:11.576Z,1021.94
2023-04-27T04:38:38.440Z,1021.87
2023-04-27T04:41:05.329Z,1021.78
2023-04-27T04:43:33.317Z,1021.80
2023-04-27T04:46:00.054Z,1022.06
2023-04-27T04:48:26.940Z,1022.22
2023-04-27T04:50:55.048Z,1022.19
2023-04-27T04:53:21.854Z,1022.11
2023-04-27T04:55:48.576Z,1022.01
2023-04-27T04:58:15.400Z,1021.97
2023-04-27T05:00:42.206Z,1022.05
2023-04-27T05:03:09.178Z,1022.14
2023-04-27T05:05:37.512Z,1022.09
2023-04-27T05:08:08.486Z,1022.03
2023-04-27T05:10:35.468Z,1021.89
2023-04-27T05:13:02.253Z,1021.91
2023-04-27T05:15:29.007Z,1022.01
2023-04-27T05:17:55.851Z,1021.97
2023-04-27T05:20:22.753Z,1021.88
2023-04-27T05:22:49.740Z,1021.82
2023-04-27T05:25:18.047Z,1021.77
2023-04-27T05:27:44.966Z,1021.77
2023-04-27T05:30:13.230Z,1021.87
2023-04-27T05:32:40.006Z,1022.05
2023-04-27T05:35:07.837Z,1022.09
2023-04-27T05:37:34.688Z,1022.12
2023-04-27T05:40:01.649Z,1022.08
2023-04-27T05:42:29.784Z,1022.10
2023-04-27T05:44:56.529Z,1022.09
2023-04-27T05:47:23.817Z,1022.09
2023-04-27T05:49:51.226Z,1021.99
2023-04-27T05:52:18.024Z,1022.01
2023-04-27T05:54:46.842Z,1022.00
2023-04-27T05:57:13.692Z,1021.94
2023-04-27T05:59:42.064Z,1021.96
2023-04-27T06:02:10.361Z,1021.98
2023-04-27T06:04:37.308Z,1021.87
2023-04-27T06:07:08.182Z,1021.74
2023-04-27T06:09:35.119Z,1021.64
2023-04-27T06:12:02.533Z,1021.48
2023-04-27T06:14:32.218Z,1021.36
2023-04-27T06:17:00.480Z,1021.29
2023-04-27T06:19:27.324Z,1021.17
2023-04-27T06:21:54.420Z,1021.00
2023-04-27T06:24:21.520Z,1020.95
2023-04-27T06:26:51.190Z,1020.68
2023-04-27T06:29:17.945Z,1020.50
2023-04-27T06:31:44.750Z,1020.48
2023-04-27T06:34:13.108Z,1020.54
2023-04-27T06:36:39.870Z,1020.68
2023-04-27T06:39:06.716Z,1020.61
2023-04-27T06:41:33.516Z,1020.56
2023-04-27T06:44:00.396Z,1020.64
2023-04-27T06:46:27.514Z,1020.62
2023-04-27T06:48:54.359Z,1020.67
2023-04-27T06:51:22.590Z,1020.74
2023-04-27T06:53:50.088Z,1020.65
2023-04-27T06:56:17.116Z,1020.68
2023-04-27T06:58:43.877Z,1020.67
2023-04-27T07:01:10.736Z,1020.38
2023-04-27T07:03:37.710Z,1020.67
2023-04-27T07:06:04.868Z,1020.69
2023-04-27T07:08:33.669Z,1020.53
2023-04-27T07:11:00.426Z,1020.35
2023-04-27T07:13:29.620Z,1020.20
2023-04-27T07:15:57.064Z,1020.15
2023-04-27T07:18:24.108Z,1020.18
2023-04-27T07:20:51.073Z,1020.15
2023-04-27T07:23:18.252Z,1020.23
2023-04-27T07:25:46.706Z,1020.28
2023-04-27T07:28:13.550Z,1020.29
2023-04-27T07:30:40.410Z,1020.27
2023-04-27T07:33:07.469Z,1020.55
2023-04-27T07:35:34.426Z,1020.60
2023-04-27T07:38:01.272Z,1020.62
2023-04-27T07:40:28.137Z,1020.37
2023-04-27T07:42:57.377Z,1020.36
2023-04-27T07:45:24.547Z,1020.36
2023-04-27T07:47:51.480Z,1020.29
2023-04-27T07:50:19.067Z,1020.27
2023-04-27T07:52:45.795Z,1020.18
2023-04-27T07:55:12.686Z,1020.07
2023-04-27T07:57:39.485Z,1020.03
2023-04-27T08:00:08.983Z,1020.01
2023-04-27T08:02:36.087Z,1019.90
2023-04-27T08:05:03.680Z,1019.79
2023-04-27T08:07:31.134Z,1019.53
2023-04-27T08:09:58.018Z,1019.25
2023-04-27T08:12:24.829Z,1018.99
2023-04-27T08:14:51.744Z,1018.80
2023-04-27T08:17:20.108Z,1018.90
2023-04-27T08:19:47.064Z,1018.96
2023-04-27T08:22:13.934Z,1018.99
2023-04-27T08:24:40.736Z,1018.94
2023-04-27T08:27:07.656Z,1019.19
2023-04-27T08:29:34.815Z,1019.04
2023-04-27T08:32:03.342Z,1019.04
2023-04-27T08:34:31.820Z,1018.97
2023-04-27T08:36:58.656Z,1018.97
2023-04-27T08:39:25.609Z,1018.91
2023-04-27T08:41:52.398Z,1018.68
2023-04-27T08:44:19.354Z,1018.44
2023-04-27T08:46:46.203Z,1018.22
2023-04-27T08:49:15.137Z,1017.99
2023-04-27T08:51:44.992Z,1017.79
2023-04-27T08:54:11.863Z,1017.57
2023-04-27T08:56:39.309Z,1017.70
2023-04-27T08:59:16.533Z,1017.56
2023-04-27T09:01:44.733Z,1017.67
2023-04-27T09:04:11.816Z,1017.67
2023-04-27T09:06:38.706Z,1017.62
2023-04-27T09:09:07.083Z,1017.75
2023-04-27T09:11:36.030Z,1017.64
2023-04-27T09:14:14.863Z,1017.60
2023-04-27T09:16:43.131Z,1017.48
2023-04-27T09:19:10.664Z,1017.33
2023-04-27T09:21:37.933Z,1017.38
2023-04-27T09:24:13.721Z,1017.43
2023-04-27T09:26:40.605Z,1017.37
2023-04-27T09:29:07.483Z,1017.23
2023-04-27T09:31:35.553Z,1017.12
2023-04-27T09:34:02.818Z,1017.01
2023-04-27T09:36:30.889Z,1016.97
2023-04-27T09:38:58.862Z,1017.03
2023-04-27T09:41:27.463Z,1017.02
2023-04-27T09:43:57.551Z,1016.97
2023-04-27T09:46:26.056Z,1016.94
2023-04-27T09:48:54.334Z,1016.80
2023-04-27T09:51:21.098Z,1016.72
2023-04-27T09:53:52.864Z,1016.56
2023-04-27T09:56:33.192Z,1016.50
2023-04-27T09:59:17.333Z,1016.39
2023-04-27T10:01:48.052Z,1016.53
2023-04-27T10:04:35.329Z,1016.65
2023-04-27T10:07:04.687Z,1016.71
2023-04-27T10:09:36.481Z,1016.66
2023-04-27T10:12:20.190Z,1016.70
2023-04-27T10:14:51.761Z,1016.73
2023-04-27T10:17:18.830Z,1016.66
2023-04-27T10:19:58.252Z,1016.61
2023-04-27T10:22:38.010Z,1016.49
2023-04-27T10:25:14.038Z,1016.38
2023-04-27T10:27:42.359Z,1016.45
2023-04-27T10:30:10.983Z,1016.49
2023-04-27T10:32:37.946Z,1016.29
2023-04-27T10:35:08.594Z,1016.46
2023-04-27T10:37:39.444Z,1016.35
2023-04-27T10:40:08.934Z,1016.16
2023-04-27T10:42:36.786Z,1016.08
2023-04-27T10:45:06.529Z,1016.36
2023-04-27T10:47:38.386Z,1016.11
2023-04-27T10:50:06.518Z,1015.82
2023-04-27T10:52:33.503Z,1015.65
2023-04-27T10:55:12.726Z,1015.60
2023-04-27T10:57:46.480Z,1015.46
2023-04-27T11:00:16.624Z,1015.27
2023-04-27T11:02:43.611Z,1014.98
2023-04-27T11:05:17.897Z,1015.01
2023-04-27T11:07:44.941Z,1015.07
2023-04-27T11:10:16.107Z,1015.02
2023-04-27T11:12:42.982Z,1015.10
2023-04-27T11:15:10.637Z,1015.23
2023-04-27T11:17:39.347Z,1015.23
2023-04-27T11:20:07.529Z,1015.18
2023-04-27T11:22:34.684Z,1015.31
2023-04-27T11:25:02.099Z,1015.45
2023-04-27T11:27:36.983Z,1015.71
2023-04-27T11:30:04.858Z,1016.06
2023-04-27T11:32:31.890Z,1015.84
2023-04-27T11:35:00.295Z,1015.74
2023-04-27T11:37:28.507Z,1015.76
2023-04-27T11:39:55.529Z,1015.64
2023-04-27T11:42:23.755Z,1016.07
2023-04-27T11:44:53.113Z,1015.67
2023-04-27T11:47:20.072Z,1015.57
2023-04-27T11:49:48.021Z,1015.49
2023-04-27T11:52:16.545Z,1015.40
2023-04-27T11:54:50.525Z,1015.28
2023-04-27T11:57:17.354Z,1015.34
2023-04-27T11:59:44.156Z,1015.57
2023-04-27T12:02:11.081Z,1015.50
2023-04-27T12:04:38.171Z,1015.44
2023-04-27T12:07:05.091Z,1015.50
2023-04-27T12:09:33.237Z,1015.55
2023-04-27T12:12:00.175Z,1015.66
2023-04-27T12:14:27.801Z,1015.74
2023-04-27T12:16:54.574Z,1015.75
2023-04-27T12:19:21.360Z,1015.73
2023-04-27T12:21:48.387Z,1015.65
2023-04-27T12:24:15.451Z,1015.78
2023-04-27T12:26:43.893Z,1015.86
2023-04-27T12:29:10.676Z,1015.73
2023-04-27T12:31:37.649Z,1015.73
2023-04-27T12:34:04.862Z,1015.85
2023-04-27T12:36:31.809Z,1015.79
2023-04-27T12:39:00.350Z,1015.93
2023-04-27T12:41:27.406Z,1015.96
2023-04-27T12:43:56.092Z,1016.07
2023-04-27T12:46:22.997Z,1016.07
2023-04-27T12:48:49.966Z,1016.12
2023-04-27T12:51:16.826Z,1016.03
2023-04-27T12:53:43.727Z,1015.91
2023-04-27T12:56:10.688Z,1015.95
2023-04-27T12:58:37.520Z,1015.93
2023-04-27T13:01:05.871Z,1015.94
2023-04-27T13:03:32.784Z,1015.89
2023-04-27T13:05:59.700Z,1015.94
2023-04-27T13:08:26.454Z,1015.97
2023-04-27T13:10:53.429Z,1015.94
2023-04-27T13:13:20.305Z,1016.02
2023-04-27T13:15:47.213Z,1016.02
2023-04-27T13:18:15.438Z,1016.03
2023-04-27T13:20:42.350Z,1016.27
2023-04-27T13:23:09.348Z,1016.13
2023-04-27T13:25:36.089Z,1016.16
2023-04-27T13:28:02.982Z,1016.00
2023-04-27T13:30:30.572Z,1016.22
2023-04-27T13:33:07.270Z,1016.10
2023-04-27T13:35:43.863Z,1016.31
2023-04-27T13:38:10.651Z,1016.34
2023-04-27T13:40:37.446Z,1016.43
2023-04-27T13:43:04.275Z,1016.38
2023-04-27T13:45:31.089Z,1016.43
2023-04-27T13:47:59.245Z,1016.44
2023-04-27T13:50:26.109Z,1016.48
2023-04-27T13:52:55.085Z,1016.48
2023-04-27T13:55:21.905Z,1016.59
2023-04-27T13:57:48.826Z,1016.59
2023-04-27T14:00:16.254Z,1016.54
2023-04-27T14:02:43.152Z,1016.61
2023-04-27T14:05:10.334Z,1016.61
2023-04-27T14:07:37.183Z,1016.54
2023-04-27T14:10:06.593Z,1016.42
2023-04-27T14:12:33.464Z,1016.22
2023-04-27T14:15:00.231Z,1016.20
2023-04-27T14:17:26.984Z,1016.15
2023-04-27T14:19:53.855Z,1016.16
2023-04-27T14:22:21.078Z,1016.22
2023-04-27T14:24:47.966Z,1016.26
2023-04-27T14:27:16.466Z,1016.35
2023-04-27T14:29:43.188Z,1016.20
2023-04-27T14:32:10.086Z,1016.21
2023-04-27T14:34:36.920Z,1016.07
2023-04-27T14:37:05.933Z,1016.16
2023-04-27T14:39:32.782Z,1016.07
2023-04-27T14:41:59.577Z,1016.02
2023-04-27T14:44:27.910Z,1016.25
2023-04-27T14:46:54.773Z,1016.33
2023-04-27T14:49:21.551Z,1016.50
2023-04-27T14:51:48.299Z,1016.48
2023-04-27T14:54:15.147Z,1016.39
2023-04-27T14:56:43.987Z,1016.41
2023-04-27T14:59:10.801Z,1016.40
2023-04-27T15:01:38.954Z,1016.43
2023-04-27T15:04:06.402Z,1016.44
2023-04-27T15:06:33.387Z,1016.42
2023-04-27T15:09:00.188Z,1016.44
2023-04-27T15:11:27.010Z,1016.54
2023-04-27T15:13:53.814Z,1016.66
2023-04-27T15:16:20.764Z,1016.71
2023-04-27T15:18:49.052Z,1016.68
2023-04-27T15:21:15.869Z,1016.77
2023-04-27T15:23:42.749Z,1016.80
2023-04-27T15:26:09.487Z,1016.67
2023-04-27T15:28:36.261Z,1016.66
2023-04-27T15:31:03.331Z,1016.67
2023-04-27T15:33:30.286Z,1016.55
2023-04-27T15:35:58.400Z,1016.53
2023-04-27T15:38:25.179Z,1016.47
2023-04-27T15:40:52.021Z,1016.57
2023-04-27T15:43:18.880Z,1016.45
2023-04-27T15:45:45.623Z,1016.35
2023-04-27T15:48:12.515Z,1016.44
2023-04-27T15:50:39.515Z,1016.43
2023-04-27T15:53:07.886Z,1016.53
2023-04-27T15:55:34.717Z,1016.54
2023-04-27T15:58:01.490Z,1016.56
2023-04-27T16:00:28.224Z,1016.54
2023-04-27T16:02:55.241Z,1016.47
2023-04-27T16:05:22.122Z,1016.48
2023-04-27T16:07:48.962Z,1016.46
2023-04-27T16:10:17.122Z,1016.37
2023-04-27T16:12:43.871Z,1016.32
2023-04-27T16:15:11.676Z,1016.25
2023-04-27T16:17:39.097Z,1016.27
2023-04-27T16:20:07.229Z,1016.29
2023-04-27T16:22:34.706Z,1016.28
2023-04-27T16:25:01.660Z,1016.26
2023-04-27T16:27:29.857Z,1016.22
2023-04-27T16:29:56.701Z,1016.21
2023-04-27T16:32:23.694Z,1016.34
2023-04-27T16:34:50.782Z,1016.37
2023-04-27T16:37:17.540Z,1016.42
2023-04-27T16:39:44.282Z,1016.35
2023-04-27T16:42:11.095Z,1016.49
2023-04-27T16:44:39.356Z,1016.61
2023-04-27T16:47:06.200Z,1016.64
2023-04-27T16:49:32.980Z,1016.64
2023-04-27T16:51:59.732Z,1016.75
2023-04-27T16:54:26.591Z,1016.72
2023-04-27T16:56:55.079Z,1016.70
2023-04-27T16:59:22.116Z,1016.87
2023-04-27T17:01:50.442Z,1016.95
2023-04-27T17:04:17.441Z,1017.03
2023-04-27T17:06:44.244Z,1017.19
2023-04-27T17:09:10.998Z,1017.26
2023-04-27T17:11:37.868Z,1017.26
2023-04-27T17:14:04.888Z,1017.30
2023-04-27T17:16:31.963Z,1017.41
2023-04-27T17:19:00.158Z,1017.48
2023-04-27T17:21:26.920Z,1017.55
2023-04-27T17:23:53.679Z,1017.59
2023-04-27T17:26:20.510Z,1017.69
2023-04-27T17:28:47.417Z,1017.70
2023-04-27T17:31:14.331Z,1017.82
2023-04-27T17:33:41.160Z,1017.88
2023-04-27T17:36:09.669Z,1017.91
2023-04-27T17:38:36.490Z,1017.94
2023-04-27T17:41:03.369Z,1018.06
2023-04-27T17:43:30.159Z,1018.31
2023-04-27T17:45:56.894Z,1018.40
2023-04-27T17:48:23.872Z,1018.52
2023-04-27T17:50:50.749Z,1018.67
2023-04-27T17:53:18.897Z,1018.58
2023-04-27T17:55:45.641Z,1018.59
2023-04-27T17:58:12.442Z,1018.72
2023-04-27T18:00:39.389Z,1018.74
2023-04-27T18:03:06.268Z,1018.92
2023-04-27T18:05:33.273Z,1019.01
2023-04-27T18:08:00.207Z,1019.05
2023-04-27T18:10:30.514Z,1019.08
2023-04-27T18:12:57.361Z,1019.33
2023-04-27T18:15:24.102Z,1019.50
2023-04-27T18:17:53.088Z,1019.49
2023-04-27T18:20:23.391Z,1019.72
2023-04-27T18:22:50.382Z,1019.87
2023-04-27T18:25:17.404Z,1019.76
2023-04-27T18:27:45.530Z,1019.79
2023-04-27T18:30:12.837Z,1019.93
2023-04-27T18:32:39.627Z,1020.05
2023-04-27T18:35:07.088Z,1020.10
2023-04-27T18:37:33.900Z,1020.21
2023-04-27T18:40:00.732Z,1020.30
2023-04-27T18:42:27.469Z,1020.38
2023-04-27T18:44:55.670Z,1020.42
2023-04-27T18:47:22.423Z,1020.49
2023-04-27T18:49:49.226Z,1020.46
2023-04-27T18:52:16.088Z,1020.50
2023-04-27T18:54:42.852Z,1020.57
2023-04-27T18:57:09.549Z,1020.57
2023-04-27T18:59:37.914Z,1020.58
2023-04-27T19:02:06.894Z,1020.73
2023-04-27T19:04:33.937Z,1020.70
2023-04-27T19:07:01.394Z,1020.73
2023-04-27T19:09:28.178Z,1020.74
2023-04-27T19:12:02.904Z,1020.79
2023-04-27T19:14:30.920Z,1020.78
2023-04-27T19:16:57.805Z,1020.80
2023-04-27T19:19:26.031Z,1020.87
2023-04-27T19:21:52.951Z,1020.77
2023-04-27T19:24:19.718Z,1020.74
2023-04-27T19:26:47.525Z,1020.82
2023-04-27T19:29:14.548Z,1020.73
2023-04-27T19:31:41.645Z,1020.76
2023-04-27T19:34:08.584Z,1020.75
2023-04-27T19:36:36.690Z,1020.83
2023-04-27T19:39:03.817Z,1020.91
2023-04-27T19:41:30.695Z,1021.02
2023-04-27T19:43:57.437Z,1021.06
2023-04-27T19:46:24.263Z,1021.28
2023-04-27T19:48:53.014Z,1021.16
2023-04-27T19:51:19.845Z,1021.23
2023-04-27T19:53:48.050Z,1021.26
2023-04-27T19:56:14.856Z,1021.31
2023-04-27T19:58:41.697Z,1021.40
2023-04-27T20:01:08.446Z,1021.40
2023-04-27T20:03:35.409Z,1021.51
2023-04-27T20:06:02.500Z,1021.61
2023-04-27T20:08:29.694Z,1021.61
2023-04-27T20:10:57.886Z,1021.69
2023-04-27T20:13:24.722Z,1021.70
2023-04-27T20:15:51.582Z,1021.85
2023-04-27T20:18:18.746Z,1021.90
2023-04-27T20:20:45.515Z,1021.91
2023-04-27T20:23:12.236Z,1021.96
2023-04-27T20:25:38.972Z,1022.01
2023-04-27T20:28:07.128Z,1022.09
2023-04-27T20:30:33.938Z,1022.10
2023-04-27T20:33:00.794Z,1022.16
2023-04-27T20:35:27.526Z,1022.19
2023-04-27T20:37:54.382Z,1022.16
2023-04-27T20:40:21.252Z,1022.20
2023-04-27T20:42:48.059Z,1022.30
2023-04-27T20:45:16.482Z,1022.26
2023-04-27T20:47:43.297Z,1022.26
2023-04-27T20:50:10.384Z,1022.26
2023-04-27T20:52:37.135Z,1022.26
2023-04-27T20:55:04.482Z,1022.19
2023-04-27T20:57:31.252Z,1022.24
2023-04-27T20:59:58.007Z,1022.18
2023-04-27T21:02:26.248Z,1022.27
2023-04-27T21:04:53.142Z,1022.36
2023-04-27T21:07:19.967Z,1022.35
2023-04-27T21:09:46.839Z,1022.50
2023-04-27T21:12:13.604Z,1022.54
2023-04-27T21:14:40.697Z,1022.58
2023-04-27T21:17:07.581Z,1022.55
2023-04-27T21:19:35.846Z,1022.50
2023-04-27T21:22:02.681Z,1022.44
2023-04-27T21:24:29.408Z,1022.42
2023-04-27T21:26:56.256Z,1022.43
2023-04-27T21:29:22.990Z,1022.57
2023-04-27T21:31:49.870Z,1022.59
2023-04-27T21:34:16.867Z,1022.55
2023-04-27T21:36:45.090Z,1022.57
2023-04-27T21:39:11.817Z,1022.45
2023-04-27T21:41:38.634Z,1022.49
2023-04-27T21:44:05.492Z,1022.47
2023-04-27T21:46:32.316Z,1022.58
2023-04-27T21:48:59.133Z,1022.61
2023-04-27T21:51:25.896Z,1022.69
2023-04-27T21:53:54.056Z,1022.65
2023-04-27T21:56:20.924Z,1022.69
2023-04-27T21:58:47.810Z,1022.69
2023-04-27T22:01:14.633Z,1022.74
2023-04-27T22:03:41.621Z,1022.75
2023-04-27T22:06:08.486Z,1022.70
2023-04-27T22:08:35.378Z,1022.79
2023-04-27T22:11:03.574Z,1022.78
2023-04-27T22:13:30.377Z,1022.83
2023-04-27T22:15:57.292Z,1022.94
2023-04-27T22:18:24.180Z,1022.92
2023-04-27T22:20:50.970Z,1023.03
2023-04-27T22:23:18.227Z,1023.01
2023-04-27T22:25:45.274Z,1022.99
2023-04-27T22:28:13.453Z,1022.92
2023-04-27T22:30:40.617Z,1022.93
2023-04-27T22:33:07.660Z,1022.86
2023-04-27T22:35:35.117Z,1022.91
2023-04-27T22:38:02.211Z,1022.85
2023-04-27T22:40:29.017Z,1022.87
2023-04-27T22:42:56.083Z,1022.85
2023-04-27T22:45:24.280Z,1022.96
2023-04-27T22:47:51.157Z,1022.91
2023-04-27T22:50:18.158Z,1023.04
2023-04-27T22:52:44.975Z,1023.03
2023-04-27T22:55:12.876Z,1023.09
2023-04-27T22:57:40.216Z,1023.10
2023-04-27T23:00:08.201Z,1023.02
2023-04-27T23:02:36.618Z,1023.12
2023-04-27T23:05:03.573Z,1023.14
2023-04-27T23:07:30.379Z,1023.15
2023-04-27T23:09:57.137Z,1023.11
2023-04-27T23:12:23.951Z,1023.08
2023-04-27T23:14:50.673Z,1023.15
2023-04-27T23:17:17.553Z,1023.17
2023-04-27T23:19:45.705Z,1023.14
2023-04-27T23:22:12.467Z,1023.07
2023-04-27T23:24:39.212Z,1023.07
2023-04-27T23:27:05.953Z,1023.00
2023-04-27T23:29:32.745Z,1022.97
2023-04-27T23:32:01.709Z,1022.99
2023-04-27T23:34:28.516Z,1022.96
2023-04-27T23:36:56.650Z,1022.98
2023-04-27T23:39:23.461Z,1023.02
2023-04-27T23:41:50.193Z,1022.98
2023-04-27T23:44:17.199Z,1022.96
2023-04-27T23:46:44.248Z,1022.96
2023-04-27T23:49:11.095Z,1023.02
2023-04-27T23:51:38.267Z,1022.96
2023-04-27T23:54:06.402Z,1022.93
2023-04-27T23:56:33.185Z,1022.93
2023-04-27T23:58:59.920Z,1022.98
